Latest Weather Observations for Fowlers Gap

IDN60801

Issued at 5:32 am EDT Monday 20 February 2017 (issued every 30 minutes, with the page automatically refreshed every 10 minutes)

About weather observations | Map of weather stations | Latest weather observations for NSW | Other Formats
Station Details ID: 046128 Name: FOWLERS GAP AWS Lat: -31.09 Lon: 141.70 Height: 181.0 m
Data from the previous 72 hours. | See also: Recent months at Fowlers Gap
Date/Time
EDT
Temp
°C
App
Temp
°C
Dew
Point
°C
Rel
Hum
%
Delta-T
°C
Wind Press
QNH
hPa
Press
MSL
hPa
Rain since
9am
mm
Dir  Spd
km/h
Gust
km/h
Spd
kts
Gust
kts
20/05:30am 15.9 12.0 5.5 50 5.0 S 15 24 8 13 1015.9 1014.8 0.0
20/05:00am 16.2 12.3 5.5 49 5.2 SSE 15 20 8 11 1015.5 1014.4 0.0
20/04:30am 16.3 12.6 4.4 45 5.6 S 13 17 7 9 1015.3 1014.2 0.0
20/04:00am 17.2 12.8 4.5 43 6.1 S 17 20 9 11 1015.3 1014.2 0.0
20/03:30am 17.8 13.0 4.4 41 6.4 SSW 19 26 10 14 1015.2 1014.1 0.0
20/03:00am 16.3 13.2 3.7 43 5.9 SW 9 13 5 7 1014.9 1013.9 0.0
20/02:30am 16.9 14.3 3.2 40 6.4 SW 6 9 3 5 1015.1 1014.0 0.0
20/02:00am 17.0 14.1 2.6 38 6.6 SW 7 9 4 5 1014.8 1013.8 0.0
20/01:30am 18.1 14.2 3.2 37 7.0 SSE 13 15 7 8 1014.9 1013.9 0.0
20/01:00am 18.7 14.3 2.9 35 7.4 S 15 20 8 11 1014.8 1013.8 0.0
20/12:30am 18.9 14.9 3.1 35 7.4 S 13 17 7 9 1014.9 1013.9 0.0
20/12:00am 19.7 15.4 3.0 33 7.9 S 15 20 8 11 1014.9 1013.9 0.0
 
Date/Time
EDT
Temp
°C
App
Temp
°C
Dew
Point
°C
Rel
Hum
%
Delta-T
°C
Wind Press
QNH
hPa
Press
MSL
hPa
Rain since
9am
mm
Dir  Spd
km/h
Gust
km/h
Spd
kts
Gust
kts
19/11:30pm 19.4 15.4 2.7 33 7.8 SSW 13 15 7 8 1014.9 1013.9 0.0
19/11:00pm 19.6 15.6 2.9 33 7.9 SSW 13 15 7 8 1014.7 1013.7 0.0
19/10:30pm 20.2 16.5 2.5 31 8.3 SSW 11 15 6 8 1014.6 1013.6 0.0
19/10:00pm 20.9 16.9 2.7 30 8.6 SW 13 17 7 9 1014.4 1013.4 0.0
19/09:30pm 21.6 16.5 2.8 29 9.0 SW 19 24 10 13 1014.0 1012.9 0.0
19/09:00pm 22.2 16.9 2.8 28 9.3 SW 20 32 11 17 1013.7 1012.6 0.0
19/08:30pm 22.7 17.3 2.2 26 9.7 SW 20 30 11 16 1013.5 1012.4 0.0
19/08:00pm 23.4 17.1 1.7 24 10.3 SW 24 32 13 17 1013.2 1012.1 0.0
19/07:30pm 24.1 18.3 2.3 24 10.5 SW 22 32 12 17 1013.0 1011.9 0.0
19/07:00pm 24.2 17.9 1.8 23 10.7 SW 24 33 13 18 1012.8 1011.7 0.0
19/06:30pm 24.6 18.4 2.1 23 10.8 SW 24 32 13 17 1012.7 1011.6 0.0
19/06:00pm 24.5 18.3 2.0 23 10.8 SW 24 35 13 19 1012.7 1011.6 0.0
19/05:30pm 24.5 17.9 2.0 23 10.8 SW 26 41 14 22 1012.7 1011.6 0.0
19/05:00pm 24.4 18.8 1.3 22 10.9 S 20 30 11 16 1012.7 1011.6 0.0
19/04:30pm 25.3 19.4 1.4 21 11.4 SW 22 33 12 18 1012.9 1011.8 0.0
19/04:00pm 23.9 18.2 0.3 21 10.9 SSW 20 35 11 19 1013.1 1012.0 0.0
19/03:30pm 23.9 18.5 1.5 23 10.6 SW 19 32 10 17 1013.3 1012.2 0.0
19/03:00pm 23.2 17.5 0.3 22 10.5 SW 20 30 11 16 1013.8 1012.7 0.0
19/02:30pm 22.3 16.6 0.8 24 9.9 SW 20 32 11 17 1014.0 1012.9 0.0
19/02:00pm 22.5 18.3 1.5 25 9.8 SW 13 26 7 14 1014.4 1013.4 0.0
19/01:30pm 20.9 14.9 1.2 27 9.1 S 22 32 12 17 1014.9 1013.9 0.0
19/01:00pm 20.1 15.0 1.0 28 8.7 SSW 17 33 9 18 1015.4 1014.3 0.0
19/12:30pm 19.8 13.8 1.3 29 8.5 SSW 22 35 12 19 1015.8 1014.7 0.0
19/12:00pm 20.9 15.7 2.7 30 8.6 SSW 19 28 10 15 1016.3 1015.2 0.0
19/11:30am 19.8 14.6 2.2 31 8.2 S 19 28 10 15 1016.8 1015.7 0.0
19/11:00am 18.5 12.3 1.9 33 7.6 S 24 37 13 20 1017.0 1015.9 0.0
19/10:30am 18.0 11.8 1.9 34 7.3 S 24 32 13 17 1016.7 1015.6 0.0
19/10:00am 17.5 10.9 1.9 35 7.1 S 26 35 14 19 1016.8 1015.7 0.0
19/09:30am 17.3 11.5 2.5 37 6.8 SSE 22 28 12 15 1016.7 1015.6 0.0
19/09:00am 16.0 9.6 3.4 43 5.8 S 26 35 14 19 1016.4 1015.3 0.0
19/08:30am 15.6 10.2 4.3 47 5.3 SSE 22 30 12 16 1016.2 1015.1 0.0
19/08:00am 15.2 10.4 4.6 49 5.0 SSE 19 24 10 13 1015.9 1014.8 0.0
19/07:30am 14.9 10.1 4.6 50 4.8 SSE 19 24 10 13 1015.7 1014.6 0.0
19/07:00am 15.2 10.3 4.9 50 4.9 SSE 20 28 11 15 1015.3 1014.2 0.0
19/06:30am 15.5 11.1 4.8 49 5.1 S 17 26 9 14 1015.1 1014.0 0.0
19/06:00am 15.8 10.0 4.5 47 5.3 SSE 24 35 13 19 1014.5 1013.5 0.0
19/05:30am 16.1 10.7 4.5 46 5.5 S 22 28 12 15 1014.2 1013.2 0.0
19/05:00am 16.4 11.6 4.4 45 5.7 S 19 26 10 14 1014.0 1012.9 0.0
19/04:30am 16.8 11.8 4.8 45 5.7 S 20 30 11 16 1013.8 1012.7 0.0
19/04:00am 16.8 12.7 4.5 44 5.9 S 15 19 8 10 1013.7 1012.6 0.0
19/03:30am 17.1 13.8 4.4 43 6.0 S 11 17 6 9 1013.8 1012.7 0.0
19/03:00am 17.7 12.8 4.3 41 6.4 S 19 24 10 13 1013.8 1012.7 0.0
19/02:30am 18.2 13.3 4.0 39 6.8 SSE 19 28 10 15 1014.1 1013.0 0.0
19/02:00am 18.0 14.4 3.1 37 7.0 S 11 15 6 8 1014.1 1013.0 0.0
19/01:30am 18.3 14.7 3.0 36 7.1 SSE 11 13 6 7 1014.1 1013.0 0.0
19/01:00am 18.6 15.4 2.9 35 7.3 S 9 11 5 6 1014.0 1012.9 0.0
19/12:30am 19.7 16.2 3.4 34 7.8 SSE 11 17 6 9 1013.9 1012.8 0.0
19/12:00am 20.4 15.3 3.2 32 8.2 S 19 22 10 12 1013.7 1012.6 0.0
 
Date/Time
EDT
Temp
°C
App
Temp
°C
Dew
Point
°C
Rel
Hum
%
Delta-T
°C
Wind Press
QNH
hPa
Press
MSL
hPa
Rain since
9am
mm
Dir  Spd
km/h
Gust
km/h
Spd
kts
Gust
kts
18/11:30pm 20.8 15.7 3.1 31 8.4 S 19 24 10 13 1013.5 1012.4 0.0
18/11:00pm 21.3 15.7 3.5 31 8.6 S 22 28 12 15 1013.3 1012.2 0.0
18/10:30pm 21.7 15.3 3.4 30 8.8 S 26 35 14 19 1013.2 1012.1 0.0
18/10:00pm 22.3 16.6 2.9 28 9.3 S 22 28 12 15 1012.9 1011.8 0.0
18/09:30pm 22.9 17.6 2.9 27 9.7 S 20 26 11 14 1012.6 1011.5 0.0
18/09:00pm 23.4 18.2 3.4 27 9.8 SSW 20 32 11 17 1012.2 1011.1 0.0
18/08:30pm 23.8 18.4 2.6 25 10.2 SSW 20 30 11 16 1011.9 1010.8 0.0
18/08:00pm 24.6 18.1 2.7 24 10.7 SSW 26 33 14 18 1011.4 1010.3 0.0
18/07:30pm 25.6 19.6 3.6 24 11.0 SSW 24 37 13 20 1011.3 1010.2 0.0
18/07:00pm 25.9 19.2 3.8 24 11.1 SW 28 37 15 20 1011.0 1009.9 0.0
18/06:45pm 26.1 19.5 4.0 24 11.1 SSW 28 46 15 25 1011.0 1009.9 0.0
18/06:30pm 26.4 20.4 3.6 23 11.4 SW 24 37 13 20 1010.9 1009.8 0.0
18/06:00pm 26.9 20.8 4.6 24 11.4 SSW 26 35 14 19 1010.7 1009.6 0.0
18/05:30pm 27.2 20.6 4.3 23 11.7 SSW 28 39 15 21 1010.8 1009.7 0.0
18/05:00pm 27.8 22.1 4.8 23 11.9 SSW 24 39 13 21 1011.1 1010.0 0.0
18/04:30pm 27.4 22.6 4.5 23 11.7 SSW 19 33 10 18 1011.2 1010.1 0.0
18/04:00pm 26.7 20.0 3.9 23 11.5 SSW 28 44 15 24 1011.6 1010.5 0.0
18/03:30pm 26.8 20.5 4.0 23 11.5 SSW 26 39 14 21 1011.8 1010.7 0.0
18/03:00pm 25.9 19.5 3.2 23 11.3 SSW 26 39 14 21 1012.1 1011.0 0.0
18/02:30pm 25.4 19.0 5.1 27 10.4 SSW 28 46 15 25 1012.4 1011.3 0.0
18/02:29pm 25.6 19.1 4.7 26 10.6 S 28 46 15 25 1012.5 1011.4 0.0
18/02:00pm 24.6 19.1 5.9 30 9.6 SSW 24 39 13 21 1012.7 1011.6 0.0
18/01:30pm 24.5 19.3 7.2 33 9.1 S 24 39 13 21 1012.8 1011.7 0.0
18/01:00pm 24.8 19.4 7.9 34 9.0 SSW 26 37 14 20 1013.2 1012.1 0.0
18/12:38pm 23.6 17.9 8.5 38 8.1 S 28 46 15 25 1013.4 1012.3 0.0
18/12:30pm 23.2 17.4 8.1 38 8.0 S 28 41 15 22 1013.5 1012.4 0.0
18/12:00pm 22.9 17.8 9.3 42 7.4 SSW 26 35 14 19 1013.7 1012.6 0.0
18/11:30am 22.0 16.9 9.2 44 6.9 S 26 43 14 23 1013.9 1012.8 0.0
18/11:00am 21.5 15.7 9.4 46 6.5 SSE 30 39 16 21 1013.9 1012.8 0.0
18/10:30am 20.7 14.5 9.3 48 6.1 S 32 43 17 23 1014.1 1013.0 0.0
18/10:00am 20.3 14.8 10.4 53 5.4 S 30 41 16 22 1014.1 1013.0 0.0
18/09:30am 19.9 14.1 10.9 56 4.9 SSE 32 41 17 22 1014.0 1012.9 0.0
18/09:00am 19.7 14.8 11.2 58 4.7 S 28 39 15 21 1013.9 1012.8 0.0
18/08:30am 19.3 14.1 11.6 61 4.3 S 30 41 16 22 1013.5 1012.4 0.0
18/08:00am 19.1 13.6 11.7 62 4.1 S 32 43 17 23 1013.0 1011.9 0.0
18/07:30am 19.2 14.8 10.5 57 4.7 S 24 35 13 19 1012.4 1011.3 0.0
18/07:00am 19.3 15.6 10.0 55 5.0 S 20 28 11 15 1012.0 1010.9 0.0
18/06:30am 19.6 15.0 9.8 53 5.3 S 24 30 13 16 1011.6 1010.5 0.0
18/06:00am 19.9 15.2 9.2 50 5.7 S 24 33 13 18 1011.4 1010.3 0.0
18/05:30am 20.4 14.9 9.0 48 6.1 S 28 37 15 20 1011.1 1010.0 0.0
18/05:00am 20.9 15.5 9.5 48 6.2 S 28 43 15 23 1011.1 1010.0 0.0
18/04:30am 21.3 14.7 9.9 48 6.2 S 35 46 19 25 1010.9 1009.8 0.0
18/04:00am 22.0 15.8 9.2 44 6.9 S 32 41 17 22 1010.6 1009.5 0.0
18/03:30am 22.6 16.5 8.3 40 7.6 S 30 41 16 22 1010.2 1009.1 0.0
18/03:00am 23.1 16.4 7.2 36 8.3 S 32 43 17 23 1010.0 1008.9 0.0
18/02:37am 23.6 17.3 7.3 35 8.6 S 30 48 16 26 1009.9 1008.8 0.0
18/02:30am 23.7 17.4 7.3 35 8.6 S 30 41 16 22 1010.2 1009.1 0.0
18/02:00am 24.5 17.1 6.7 32 9.3 SSE 35 48 19 26 1010.0 1008.9 0.0
18/01:49am 24.8 18.7 6.5 31 9.6 SSE 28 48 15 26 1009.9 1008.8 0.0
18/01:30am 25.1 19.8 6.8 31 9.6 SSE 24 35 13 19 1009.8 1008.7 0.0
18/01:00am 25.8 19.3 6.4 29 10.2 SSE 30 46 16 25 1009.6 1008.5 0.0
18/12:30am 26.8 19.7 6.2 27 10.8 SSE 33 44 18 24 1009.6 1008.5 0.0
18/12:00am 27.8 21.4 7.1 27 11.1 SSE 30 43 16 23 1009.3 1008.1 0.0
 
Date/Time
EDT
Temp
°C
App
Temp
°C
Dew
Point
°C
Rel
Hum
%
Delta-T
°C
Wind Press
QNH
hPa
Press
MSL
hPa
Rain since
9am
mm
Dir  Spd
km/h
Gust
km/h
Spd
kts
Gust
kts
17/11:30pm 28.7 22.5 7.9 27 11.4 SSE 30 39 16 21 1009.0 1007.9 0.0
17/11:00pm 29.4 24.5 8.5 27 11.6 SSE 24 33 13 18 1008.8 1007.7 0.0
17/10:30pm 30.2 26.0 9.7 28 11.6 SSE 22 30 12 16 1008.7 1007.6 0.0
17/10:00pm 31.1 25.8 9.9 27 12.1 SSE 28 35 15 19 1008.5 1007.4 0.0
17/09:30pm 32.3 28.9 9.2 24 13.1 SSW 17 20 9 11 1008.3 1007.2 0.0
17/09:00pm 33.2 30.2 9.3 23 13.7 SW 15 19 8 10 1008.0 1006.9 0.0
17/08:30pm 33.9 30.3 8.5 21 14.4 WSW 17 20 9 11 1007.8 1006.7 0.0
17/08:00pm 34.9 30.6 7.9 19 15.3 WSW 20 26 11 14 1007.5 1006.4 0.0
17/07:30pm 35.9 31.6 7.0 17 16.1 WSW 19 32 10 17 1007.3 1006.2 0.0
17/07:00pm 36.3 30.6 6.5 16 16.6 WSW 26 35 14 19 1007.3 1006.2 0.0
17/06:30pm 36.7 31.8 6.8 16 16.7 W 22 37 12 20 1007.1 1006.0 0.0
17/06:00pm 37.7 32.8 8.5 17 16.9 SW 24 35 13 19 1007.0 1005.9 0.0
17/05:30pm 37.9 34.1 7.7 16 17.2 SW 17 26 9 14 1007.1 1006.0 0.0
17/05:00pm 37.5 35.0 8.3 17 16.8 WNW 11 22 6 12 1007.1 1006.0 0.0
17/04:30pm 37.4 35.1 7.3 16 17.0 WNW 9 24 5 13 1007.4 1006.3 0.0
17/04:00pm 36.2 33.3 8.1 18 16.0 SE 13 24 7 13 1007.8 1006.7 0.0
17/03:30pm 36.0 33.2 8.7 19 15.7 S 13 22 7 12 1008.3 1007.2 0.0
17/03:00pm 35.8 34.3 9.3 20 15.4 SSE 7 13 4 7 1008.9 1007.8 0.0
17/02:30pm 35.6 33.0 9.2 20 15.2 SW 13 20 7 11 1009.3 1008.1 0.0
17/02:00pm 35.0 33.0 10.1 22 14.5 SSE 11 24 6 13 1009.6 1008.5 0.0
17/01:30pm 34.2 31.8 10.1 23 14.0 S 13 20 7 11 1009.9 1008.8 0.0
17/01:00pm 33.8 30.7 10.4 24 13.7 SSE 17 22 9 12 1010.3 1009.2 0.0
17/12:30pm 32.8 30.2 10.8 26 12.9 SE 15 22 8 12 1010.3 1009.2 0.0
17/12:00pm 31.6 28.3 10.9 28 12.1 SE 19 26 10 14 1010.8 1009.7 0.0
17/11:30am 30.3 26.5 11.3 31 11.1 SE 22 32 12 17 1010.9 1009.8 0.0
17/11:00am 30.0 26.1 12.0 33 10.6 SE 24 33 13 18 1010.9 1009.8 0.0
17/10:30am 28.7 24.7 11.7 35 9.9 SE 24 35 13 19 1011.0 1009.9 0.0
17/10:00am 27.9 24.4 12.3 38 9.1 SSE 22 32 12 17 1011.1 1010.0 0.0
17/09:30am 26.6 23.1 12.3 41 8.3 SE 22 28 12 15 1010.7 1009.6 0.0
17/09:00am 26.1 23.0 12.2 42 8.1 SE 20 32 11 17 1010.7 1009.6 0.0
17/08:30am 25.9 23.1 13.1 45 7.5 SSE 20 33 11 18 1010.2 1009.1 0.0
17/08:00am 25.4 21.9 13.3 47 7.1 SSE 24 35 13 19 1009.7 1008.6 0.0
17/07:30am 25.6 22.2 12.4 43 7.7 SSE 22 33 12 18 1009.3 1008.1 0.0
17/07:00am 24.6 23.1 9.3 38 8.4 SSE 7 11 4 6 1008.9 1007.8 0.0
17/06:30am 22.7 21.3 3.8 29 9.3 CALM 0 0 0 0 1008.7 1007.6 0.0
17/06:00am 22.6 21.2 3.7 29 9.3 CALM 0 0 0 0 1008.6 1007.5 0.0

Other Formats:

Comma delimited format used in spreadsheet applications
http://www.bom.gov.au/fwo/IDN60801/IDN60801.94686.axf

JavaScript Object Notation format (JSON) in row-major order
http://www.bom.gov.au/fwo/IDN60801/IDN60801.94686.json